Time;durP1;ratioP1;P1;durP2;ratioP2;P2;SDS_P1;SDS_P2;PMS_P1;PMS_P2;Temp;Humidity;BMP_temperature;BMP_pressure;BME280_temperature;BME280_humidity;BME280_pressure;Samples;Min_cycle;Max_cycle;Signal;HPM_P1;HPM_P2
2023/10/04 00:01:17;;;;;;;0.60;0.60;;;;;;;;;;5092409;28;20193;-87
2023/10/04 00:03:43;;;;;;;0.60;0.60;;;;;;;;;;5095265;28;20188;-87
2023/10/04 00:06:09;;;;;;;0.70;0.70;;;;;;;;;;5094907;28;20177;-87
2023/10/04 00:08:36;;;;;;;0.50;0.50;;;;;;;;;;5093172;28;20178;-86
2023/10/04 00:11:04;;;;;;;0.60;0.60;;;;;;;;;;5095428;28;20710;-87
2023/10/04 00:13:33;;;;;;;0.50;0.50;;;;;;;;;;5095894;28;20639;-87
2023/10/04 00:15:59;;;;;;;0.50;0.50;;;;;;;;;;5095725;28;20208;-87
2023/10/04 00:18:25;;;;;;;0.50;0.50;;;;;;;;;;5094111;28;20584;-86
2023/10/04 00:20:51;;;;;;;0.60;0.60;;;;;;;;;;5095909;28;20209;-87
2023/10/04 00:23:18;;;;;;;0.50;0.50;;;;;;;;;;5096153;28;20264;-86
2023/10/04 00:25:44;;;;;;;0.60;0.60;;;;;;;;;;5110437;28;20182;-86
2023/10/04 00:28:10;;;;;;;0.50;0.50;;;;;;;;;;5112523;28;20194;-86
2023/10/04 00:30:36;;;;;;;0.53;0.53;;;;;;;;;;5110391;28;20173;-87
2023/10/04 00:33:04;;;;;;;0.60;0.60;;;;;;;;;;5109584;28;20213;-87
2023/10/04 00:35:30;;;;;;;0.70;0.70;;;;;;;;;;5093888;28;20177;-86
2023/10/04 00:37:57;;;;;;;0.70;0.70;;;;;;;;;;5091909;28;20277;-87
2023/10/04 00:40:27;;;;;;;0.60;0.60;;;;;;;;;;5092984;28;20214;-88
2023/10/04 00:42:54;;;;;;;0.60;0.60;;;;;;;;;;5093270;28;20192;-87
2023/10/04 00:45:22;;;;;;;0.60;0.60;;;;;;;;;;5093652;28;20177;-87
2023/10/04 00:47:51;;;;;;;0.70;0.70;;;;;;;;;;5093190;28;20174;-88
2023/10/04 00:50:22;;;;;;;0.50;0.50;;;;;;;;;;5091855;28;20176;-87
2023/10/04 00:52:52;;;;;;;0.70;0.70;;;;;;;;;;5093214;28;20186;-87
2023/10/04 00:55:19;;;;;;;0.57;0.57;;;;;;;;;;5091671;28;20551;-87
2023/10/04 00:57:48;;;;;;;0.60;0.60;;;;;;;;;;5091737;28;20177;-88
2023/10/04 01:00:14;;;;;;;0.60;0.60;;;;;;;;;;5093381;28;20213;-86
2023/10/04 01:02:41;;;;;;;0.60;0.60;;;;;;;;;;5092896;28;20243;-88
2023/10/04 01:05:07;;;;;;;0.60;0.60;;;;;;;;;;5092972;28;20215;-87
2023/10/04 01:07:34;;;;;;;0.60;0.60;;;;;;;;;;5091925;28;20177;-87
2023/10/04 01:10:00;;;;;;;0.70;0.70;;;;;;;;;;5093348;28;20185;-87
2023/10/04 01:12:26;;;;;;;0.63;0.63;;;;;;;;;;5091488;28;20193;-87
2023/10/04 01:14:53;;;;;;;0.60;0.60;;;;;;;;;;5093755;28;20177;-87
2023/10/04 01:17:20;;;;;;;0.60;0.60;;;;;;;;;;5093425;28;20182;-88
2023/10/04 01:19:46;;;;;;;0.57;0.57;;;;;;;;;;5093972;28;20206;-86
2023/10/04 01:22:12;;;;;;;0.57;0.57;;;;;;;;;;5094087;28;20198;-86
2023/10/04 01:24:41;;;;;;;0.60;0.60;;;;;;;;;;5094210;28;20166;-88
2023/10/04 01:27:10;;;;;;;0.60;0.60;;;;;;;;;;5092180;28;20254;-88
2023/10/04 01:29:38;;;;;;;0.50;0.50;;;;;;;;;;5093573;28;20181;-88
2023/10/04 01:32:08;;;;;;;0.60;0.60;;;;;;;;;;5093167;28;20217;-88
2023/10/04 01:34:36;;;;;;;0.70;0.70;;;;;;;;;;5094155;28;20374;-88
2023/10/04 01:37:03;;;;;;;0.40;0.40;;;;;;;;;;5096914;28;20177;-88
2023/10/04 01:39:30;;;;;;;0.57;0.57;;;;;;;;;;5096158;28;20210;-88
2023/10/04 01:41:56;;;;;;;0.70;0.70;;;;;;;;;;5095529;28;20189;-88
2023/10/04 01:44:22;;;;;;;0.63;0.63;;;;;;;;;;5097119;28;20177;-87
2023/10/04 01:46:48;;;;;;;0.60;0.60;;;;;;;;;;5095537;28;20269;-87
2023/10/04 01:49:14;;;;;;;0.60;0.60;;;;;;;;;;5096552;28;20624;-88
2023/10/04 01:51:42;;;;;;;0.60;0.60;;;;;;;;;;5095165;28;20615;-88
2023/10/04 01:54:09;;;;;;;0.50;0.50;;;;;;;;;;5097387;28;20257;-88
2023/10/04 01:56:37;;;;;;;0.70;0.70;;;;;;;;;;5096887;28;20178;-88
2023/10/04 01:59:05;;;;;;;0.50;0.50;;;;;;;;;;5097457;28;20210;-87
2023/10/04 02:01:31;;;;;;;0.57;0.57;;;;;;;;;;5097149;28;20201;-88
2023/10/04 02:04:02;;;;;;;0.60;0.60;;;;;;;;;;5095944;28;20170;-88
2023/10/04 02:06:28;;;;;;;0.60;0.60;;;;;;;;;;5097771;28;20186;-88
2023/10/04 02:08:55;;;;;;;0.60;0.60;;;;;;;;;;5096818;28;20178;-88
2023/10/04 02:11:22;;;;;;;0.60;0.60;;;;;;;;;;5098858;28;20190;-88
2023/10/04 02:13:48;;;;;;;0.50;0.50;;;;;;;;;;5098450;28;20174;-88
2023/10/04 02:16:20;;;;;;;0.50;0.50;;;;;;;;;;5098915;28;20181;-89
2023/10/04 02:18:48;;;;;;;0.67;0.67;;;;;;;;;;5102291;28;20170;-88
2023/10/04 02:21:14;;;;;;;0.70;0.70;;;;;;;;;;5102347;28;20274;-88
2023/10/04 02:23:42;;;;;;;0.60;0.60;;;;;;;;;;5101946;28;20199;-88
2023/10/04 02:26:08;;;;;;;0.70;0.70;;;;;;;;;;5114487;28;20166;-87
2023/10/04 02:28:33;;;;;;;0.60;0.60;;;;;;;;;;5117028;28;20264;-88
2023/10/04 02:31:02;;;;;;;0.70;0.70;;;;;;;;;;5116741;28;20201;-88
2023/10/04 02:33:33;;;;;;;0.60;0.60;;;;;;;;;;5117240;28;20170;-88
2023/10/04 02:36:00;;;;;;;0.60;0.60;;;;;;;;;;5114690;28;20174;-87
2023/10/04 02:38:26;;;;;;;0.60;0.60;;;;;;;;;;5114265;28;20185;-88
2023/10/04 02:40:53;;;;;;;0.63;0.63;;;;;;;;;;5113967;28;20229;-88
2023/10/04 02:43:20;;;;;;;0.70;0.70;;;;;;;;;;5112412;28;20177;-87
2023/10/04 02:45:47;;;;;;;0.50;0.50;;;;;;;;;;5112088;28;20201;-88
2023/10/04 02:48:13;;;;;;;0.70;0.70;;;;;;;;;;5113529;28;20184;-87
2023/10/04 02:50:40;;;;;;;0.60;0.60;;;;;;;;;;5112214;28;20201;-88
2023/10/04 02:53:08;;;;;;;0.53;0.53;;;;;;;;;;5118383;28;20226;-87
2023/10/04 02:55:35;;;;;;;0.60;0.60;;;;;;;;;;5104436;28;20201;-86
2023/10/04 02:58:02;;;;;;;0.60;0.60;;;;;;;;;;5098109;28;20179;-87
2023/10/04 03:00:28;;;;;;;0.60;0.60;;;;;;;;;;5079799;28;20696;-88
2023/10/04 03:02:54;;;;;;;0.60;0.60;;;;;;;;;;5074630;28;20197;-88
2023/10/04 03:05:20;;;;;;;0.60;0.60;;;;;;;;;;5074833;28;20198;-88
2023/10/04 03:07:50;;;;;;;0.60;0.60;;;;;;;;;;5074970;28;20213;-88
2023/10/04 03:10:27;;;;;;;0.63;0.63;;;;;;;;;;5074670;28;20181;-88
2023/10/04 03:12:54;;;;;;;0.67;0.67;;;;;;;;;;5073725;28;20190;-88
2023/10/04 03:15:23;;;;;;;0.50;0.50;;;;;;;;;;5075657;28;20185;-87
2023/10/04 03:17:53;;;;;;;0.60;0.60;;;;;;;;;;5097628;28;20182;-88
2023/10/04 03:20:20;;;;;;;0.60;0.60;;;;;;;;;;5097469;28;20207;-88
2023/10/04 03:22:50;;;;;;;0.57;0.57;;;;;;;;;;5096803;28;20190;-87
2023/10/04 03:25:17;;;;;;;0.50;0.50;;;;;;;;;;5097558;28;20183;-86
2023/10/04 03:27:43;;;;;;;0.57;0.57;;;;;;;;;;5097800;28;20234;-87
2023/10/04 03:30:12;;;;;;;0.60;0.60;;;;;;;;;;5094300;28;20181;-88
2023/10/04 03:32:38;;;;;;;0.53;0.53;;;;;;;;;;5075314;28;20269;-87
2023/10/04 03:35:06;;;;;;;0.70;0.70;;;;;;;;;;5073387;28;20221;-88
2023/10/04 03:37:38;;;;;;;0.53;0.53;;;;;;;;;;5072026;28;20179;-87
2023/10/04 03:40:07;;;;;;;0.60;0.60;;;;;;;;;;5073223;28;20594;-88
2023/10/04 03:42:34;;;;;;;0.60;0.60;;;;;;;;;;5073039;28;20201;-88
2023/10/04 03:45:00;;;;;;;0.60;0.60;;;;;;;;;;5071965;28;20224;-88
2023/10/04 03:47:26;;;;;;;0.60;0.60;;;;;;;;;;5073322;28;20181;-87
2023/10/04 03:49:52;;;;;;;0.70;0.70;;;;;;;;;;5073196;28;20186;-87
2023/10/04 03:52:22;;;;;;;0.70;0.70;;;;;;;;;;5073518;28;20200;-87
2023/10/04 03:54:48;;;;;;;0.70;0.70;;;;;;;;;;5073650;28;20610;-86
2023/10/04 03:57:14;;;;;;;0.70;0.70;;;;;;;;;;5071600;28;20281;-88
2023/10/04 03:59:40;;;;;;;0.70;0.70;;;;;;;;;;5073011;28;20687;-87
2023/10/04 04:02:06;;;;;;;0.60;0.60;;;;;;;;;;5072573;28;20198;-86
2023/10/04 04:04:33;;;;;;;0.60;0.60;;;;;;;;;;5073114;28;20185;-86
2023/10/04 04:06:59;;;;;;;0.70;0.70;;;;;;;;;;5073168;28;20663;-85
2023/10/04 04:09:25;;;;;;;0.60;0.60;;;;;;;;;;5073940;28;20235;-86
2023/10/04 04:11:52;;;;;;;0.70;0.70;;;;;;;;;;5072670;28;20683;-85
2023/10/04 04:14:19;;;;;;;0.60;0.60;;;;;;;;;;5071946;28;20201;-87
2023/10/04 04:16:46;;;;;;;0.50;0.50;;;;;;;;;;5072960;28;20174;-86
2023/10/04 04:19:14;;;;;;;0.70;0.70;;;;;;;;;;5074819;28;20293;-86
2023/10/04 04:21:41;;;;;;;0.60;0.60;;;;;;;;;;5074828;28;20198;-86
2023/10/04 04:24:09;;;;;;;0.60;0.60;;;;;;;;;;5073536;28;20174;-86
2023/10/04 04:26:35;;;;;;;0.70;0.70;;;;;;;;;;5073905;28;20170;-86
2023/10/04 04:29:02;;;;;;;0.67;0.67;;;;;;;;;;5073903;28;20538;-86
2023/10/04 04:31:29;;;;;;;0.67;0.67;;;;;;;;;;5071942;28;20198;-85
2023/10/04 04:33:55;;;;;;;0.60;0.60;;;;;;;;;;5074604;28;20195;-86
2023/10/04 04:36:26;;;;;;;0.60;0.60;;;;;;;;;;5074873;28;20171;-86
2023/10/04 04:38:53;;;;;;;0.60;0.60;;;;;;;;;;5076003;28;20193;-86
2023/10/04 04:41:25;;;;;;;0.70;0.70;;;;;;;;;;5075374;28;20197;-86
2023/10/04 04:43:51;;;;;;;0.60;0.60;;;;;;;;;;5075627;28;20601;-85
2023/10/04 04:46:18;;;;;;;0.60;0.60;;;;;;;;;;5077664;28;20183;-86
2023/10/04 04:48:47;;;;;;;0.70;0.70;;;;;;;;;;5075343;28;20239;-86
2023/10/04 04:51:18;;;;;;;0.60;0.60;;;;;;;;;;5076571;28;20737;-86
2023/10/04 04:53:45;;;;;;;0.70;0.70;;;;;;;;;;5095336;28;20187;-87
2023/10/04 04:56:13;;;;;;;0.60;0.60;;;;;;;;;;5074052;28;20255;-85
2023/10/04 04:58:41;;;;;;;0.70;0.70;;;;;;;;;;5059146;28;20190;-86
2023/10/04 05:01:13;;;;;;;0.53;0.53;;;;;;;;;;5054764;28;20203;-86
2023/10/04 05:03:45;;;;;;;0.60;0.60;;;;;;;;;;5060962;28;20175;-86
2023/10/04 05:06:13;;;;;;;0.67;0.67;;;;;;;;;;5064844;28;20286;-88
2023/10/04 05:08:40;;;;;;;0.60;0.60;;;;;;;;;;5064995;28;20236;-87
2023/10/04 05:11:06;;;;;;;0.60;0.60;;;;;;;;;;5066698;28;20205;-88
2023/10/04 05:13:32;;;;;;;0.70;0.70;;;;;;;;;;5071988;28;20171;-87
2023/10/04 05:15:59;;;;;;;0.50;0.50;;;;;;;;;;5069007;28;20697;-88
2023/10/04 05:18:26;;;;;;;0.47;0.47;;;;;;;;;;5072111;28;20176;-88
2023/10/04 05:20:54;;;;;;;0.53;0.53;;;;;;;;;;5069060;28;20450;-89
2023/10/04 05:23:21;;;;;;;0.60;0.60;;;;;;;;;;5084710;28;20161;-89
2023/10/04 05:25:48;;;;;;;0.70;0.70;;;;;;;;;;5089178;28;20256;-89
2023/10/04 05:28:14;;;;;;;0.60;0.60;;;;;;;;;;5084370;28;20187;-88
2023/10/04 05:30:45;;;;;;;0.60;0.60;;;;;;;;;;5081691;28;20174;-85
2023/10/04 05:33:13;;;;;;;0.53;0.53;;;;;;;;;;5081280;28;20202;-87
2023/10/04 05:35:40;;;;;;;0.60;0.60;;;;;;;;;;5075212;28;20576;-87
2023/10/04 05:38:06;;;;;;;0.60;0.60;;;;;;;;;;5064713;28;20176;-87
2023/10/04 05:40:35;;;;;;;0.60;0.60;;;;;;;;;;5068166;28;20202;-86
2023/10/04 05:43:02;;;;;;;0.60;0.60;;;;;;;;;;5066236;28;20225;-87
2023/10/04 05:45:29;;;;;;;0.70;0.70;;;;;;;;;;5064032;28;20244;-87
2023/10/04 05:47:56;;;;;;;0.60;0.60;;;;;;;;;;5068127;28;20182;-87
2023/10/04 05:50:23;;;;;;;0.60;0.60;;;;;;;;;;5067075;28;20166;-86
2023/10/04 05:52:50;;;;;;;0.70;0.70;;;;;;;;;;5064013;28;20284;-87
2023/10/04 05:55:22;;;;;;;0.70;0.70;;;;;;;;;;5063678;28;20187;-87
2023/10/04 05:57:50;;;;;;;0.70;0.70;;;;;;;;;;5065690;28;20174;-87
2023/10/04 06:00:28;;;;;;;0.60;0.60;;;;;;;;;;5069021;28;20205;-87
2023/10/04 06:03:04;;;;;;;0.60;0.60;;;;;;;;;;5068017;28;20575;-89
2023/10/04 06:05:31;;;;;;;0.77;0.77;;;;;;;;;;5066888;28;20171;-88
2023/10/04 06:07:58;;;;;;;0.60;0.60;;;;;;;;;;5059298;28;20171;-87
2023/10/04 06:10:25;;;;;;;0.67;0.67;;;;;;;;;;5058862;28;20180;-86
2023/10/04 06:12:52;;;;;;;0.60;0.60;;;;;;;;;;5057666;28;20266;-86
2023/10/04 06:15:19;;;;;;;0.63;0.63;;;;;;;;;;5057116;28;20197;-87
2023/10/04 06:17:46;;;;;;;0.80;0.80;;;;;;;;;;5058442;28;20172;-88
2023/10/04 06:20:25;;;;;;;0.60;0.60;;;;;;;;;;5056851;28;20207;-90
2023/10/04 06:22:54;;;;;;;0.57;0.57;;;;;;;;;;5055978;28;20203;-87
2023/10/04 06:25:21;;;;;;;0.60;0.60;;;;;;;;;;5056816;28;20254;-87
2023/10/04 06:27:50;;;;;;;0.70;0.70;;;;;;;;;;5056191;28;20197;-86
2023/10/04 06:30:18;;;;;;;0.60;0.60;;;;;;;;;;5055216;28;20213;-87
2023/10/04 06:32:44;;;;;;;0.60;0.60;;;;;;;;;;5055598;28;20187;-88
2023/10/04 06:35:12;;;;;;;0.60;0.60;;;;;;;;;;5042121;28;20266;-85
2023/10/04 06:37:39;;;;;;;0.63;0.63;;;;;;;;;;5067954;28;20234;-85
2023/10/04 06:40:14;;;;;;;0.50;0.50;;;;;;;;;;5073133;28;20222;-86
2023/10/04 06:42:40;;;;;;;0.50;0.50;;;;;;;;;;5071768;28;20193;-87
2023/10/04 06:45:07;;;;;;;0.50;0.50;;;;;;;;;;5061206;28;20179;-87
2023/10/04 06:47:34;;;;;;;0.40;0.40;;;;;;;;;;5056934;28;20558;-86
2023/10/04 06:50:02;;;;;;;0.30;0.30;;;;;;;;;;5057852;28;20222;-87
2023/10/04 06:52:28;;;;;;;0.40;0.40;;;;;;;;;;5057733;28;20207;-86
2023/10/04 06:54:54;;;;;;;0.37;0.37;;;;;;;;;;5057355;28;20188;-86
2023/10/04 06:57:20;;;;;;;0.30;0.30;;;;;;;;;;5059052;28;20183;-86
2023/10/04 06:59:46;;;;;;;0.30;0.30;;;;;;;;;;5069460;28;20222;-85
2023/10/04 07:02:12;;;;;;;0.40;0.40;;;;;;;;;;5066361;28;20206;-85
2023/10/04 07:04:38;;;;;;;0.30;0.30;;;;;;;;;;5063781;28;20175;-87
2023/10/04 07:07:04;;;;;;;0.30;0.30;;;;;;;;;;5057430;28;20221;-85
2023/10/04 07:09:30;;;;;;;0.30;0.30;;;;;;;;;;5056239;28;20186;-85
2023/10/04 07:11:56;;;;;;;0.30;0.30;;;;;;;;;;5055128;28;20268;-87
2023/10/04 07:14:22;;;;;;;0.50;0.50;;;;;;;;;;5055658;28;20187;-87
2023/10/04 07:16:48;;;;;;;0.40;0.40;;;;;;;;;;5053821;28;20213;-86
2023/10/04 07:19:16;;;;;;;0.40;0.40;;;;;;;;;;5053705;28;20213;-85
2023/10/04 07:21:42;;;;;;;0.30;0.30;;;;;;;;;;5054414;28;20729;-86
2023/10/04 07:24:08;;;;;;;0.50;0.50;;;;;;;;;;5054731;28;20187;-84
2023/10/04 07:26:36;;;;;;;0.60;0.60;;;;;;;;;;5055761;28;20175;-83
2023/10/04 07:29:03;;;;;;;0.40;0.40;;;;;;;;;;5055515;28;20190;-86
2023/10/04 07:31:34;;;;;;;0.40;0.40;;;;;;;;;;5054902;28;20195;-85
2023/10/04 07:34:00;;;;;;;0.40;0.40;;;;;;;;;;5055096;28;20600;-85
2023/10/04 07:36:26;;;;;;;0.60;0.60;;;;;;;;;;5066653;28;20183;-84
2023/10/04 07:38:52;;;;;;;0.40;0.40;;;;;;;;;;5077157;28;20171;-86
2023/10/04 07:41:18;;;;;;;0.53;0.53;;;;;;;;;;5074802;28;20191;-85
2023/10/04 07:43:44;;;;;;;0.40;0.40;;;;;;;;;;5056298;28;20179;-86
2023/10/04 07:46:10;;;;;;;0.60;0.60;;;;;;;;;;5055454;28;20526;-85
2023/10/04 07:48:36;;;;;;;0.40;0.40;;;;;;;;;;5056852;28;20252;-85
2023/10/04 07:51:02;;;;;;;0.60;0.60;;;;;;;;;;5054857;28;20198;-87
2023/10/04 07:53:30;;;;;;;0.60;0.60;;;;;;;;;;5054836;28;20230;-88
2023/10/04 07:55:56;;;;;;;0.60;0.60;;;;;;;;;;5056302;28;20183;-85
2023/10/04 07:58:22;;;;;;;0.60;0.60;;;;;;;;;;5056251;28;20539;-86
2023/10/04 08:00:49;;;;;;;0.50;0.50;;;;;;;;;;5058002;28;20207;-86
2023/10/04 08:03:16;;;;;;;0.60;0.60;;;;;;;;;;5071129;28;20183;-87
2023/10/04 08:05:42;;;;;;;0.70;0.70;;;;;;;;;;5075216;28;20205;-86
2023/10/04 08:08:08;;;;;;;0.70;0.70;;;;;;;;;;5072778;28;20256;-88
2023/10/04 08:10:35;;;;;;;0.60;0.60;;;;;;;;;;5054777;28;20183;-85
2023/10/04 08:13:02;;;;;;;0.57;0.57;;;;;;;;;;5059049;28;20273;-84
2023/10/04 08:15:29;;;;;;;0.60;0.60;;;;;;;;;;5072972;28;20182;-85
2023/10/04 08:17:56;;;;;;;0.57;0.57;;;;;;;;;;5074426;28;20178;-85
2023/10/04 08:20:22;;;;;;;0.60;0.60;;;;;;;;;;5074509;28;20297;-85
2023/10/04 08:22:48;;;;;;;0.50;0.50;;;;;;;;;;5073215;28;20198;-87
2023/10/04 08:25:19;;;;;;;0.60;0.60;;;;;;;;;;5074899;28;20177;-87
2023/10/04 08:27:45;;;;;;;0.50;0.50;;;;;;;;;;5075984;28;20178;-86
2023/10/04 08:30:12;;;;;;;0.70;0.70;;;;;;;;;;5074344;28;20280;-85
2023/10/04 08:32:42;;;;;;;0.60;0.60;;;;;;;;;;5073493;28;20203;-85
2023/10/04 08:35:24;;;;;;;0.60;0.60;;;;;;;;;;5074436;28;20179;-87
2023/10/04 08:37:55;;;;;;;0.60;0.60;;;;;;;;;;5073740;28;20174;-86
2023/10/04 08:40:22;;;;;;;0.70;0.70;;;;;;;;;;5062619;28;20202;-85
2023/10/04 08:42:50;;;;;;;0.60;0.60;;;;;;;;;;5056752;28;20201;-89
2023/10/04 08:45:17;;;;;;;0.50;0.50;;;;;;;;;;5070519;28;20180;-86
2023/10/04 08:47:47;;;;;;;0.60;0.60;;;;;;;;;;5058558;28;20190;-85
2023/10/04 08:50:15;;;;;;;0.65;0.65;;;;;;;;;;5057731;28;20254;-86
2023/10/04 08:52:42;;;;;;;0.52;0.52;;;;;;;;;;5060509;28;20213;-85
2023/10/04 08:55:13;;;;;;;0.65;0.65;;;;;;;;;;5083076;28;20192;-85
2023/10/04 08:57:40;;;;;;;0.52;0.52;;;;;;;;;;5086914;28;20170;-88
2023/10/04 09:00:18;;;;;;;0.60;0.60;;;;;;;;;;5086515;28;20218;-86
2023/10/04 09:02:47;;;;;;;0.57;0.57;;;;;;;;;;5079938;28;20729;-85
2023/10/04 09:05:20;;;;;;;0.50;0.50;;;;;;;;;;5074660;28;20190;-86
2023/10/04 09:07:48;;;;;;;0.60;0.60;;;;;;;;;;5057007;28;20262;-84
2023/10/04 09:10:15;;;;;;;0.63;0.63;;;;;;;;;;5057030;28;20686;-86
2023/10/04 09:12:42;;;;;;;0.60;0.60;;;;;;;;;;5056344;28;20191;-87
2023/10/04 09:15:08;;;;;;;0.50;0.50;;;;;;;;;;5063216;28;20258;-84
2023/10/04 09:17:47;;;;;;;0.60;0.60;;;;;;;;;;5079906;28;20171;-86
2023/10/04 09:20:13;;;;;;;0.60;0.60;;;;;;;;;;5080472;28;20226;-84
2023/10/04 09:22:39;;;;;;;0.60;0.60;;;;;;;;;;5080594;28;20183;-86
2023/10/04 09:25:05;;;;;;;0.70;0.70;;;;;;;;;;5080496;28;20197;-89
2023/10/04 09:27:31;;;;;;;0.57;0.57;;;;;;;;;;5080399;28;20238;-89
2023/10/04 09:29:59;;;;;;;0.40;0.40;;;;;;;;;;5071150;28;20179;-85
2023/10/04 09:32:35;;;;;;;0.40;0.40;;;;;;;;;;5054851;28;20194;-85
2023/10/04 09:35:03;;;;;;;0.50;0.50;;;;;;;;;;5056840;28;20175;-84
2023/10/04 09:37:30;;;;;;;0.50;0.50;;;;;;;;;;5056350;28;20329;-87
2023/10/04 09:40:10;;;;;;;0.40;0.40;;;;;;;;;;5057663;28;20635;-86
2023/10/04 09:42:51;;;;;;;0.40;0.40;;;;;;;;;;5055665;28;20216;-87
2023/10/04 09:45:20;;;;;;;0.60;0.60;;;;;;;;;;5057378;28;20171;-85
2023/10/04 09:47:46;;;;;;;0.40;0.40;;;;;;;;;;5056408;28;20176;-86
2023/10/04 09:50:20;;;;;;;0.30;0.30;;;;;;;;;;5062217;28;20176;-87
2023/10/04 09:52:45;;;;;;;0.40;0.40;;;;;;;;;;5066082;28;20206;-85
2023/10/04 09:55:13;;;;;;;0.50;0.50;;;;;;;;;;5059795;28;20248;-88
2023/10/04 09:57:43;;;;;;;0.40;0.40;;;;;;;;;;5057154;28;20179;-86
2023/10/04 10:00:17;;;;;;;0.60;0.60;;;;;;;;;;5061630;28;20302;-85
2023/10/04 10:02:46;;;;;;;0.50;0.50;;;;;;;;;;5054512;28;20194;-85
2023/10/04 10:05:13;;;;;;;0.40;0.40;;;;;;;;;;5073892;28;20197;-84
2023/10/04 10:07:41;;;;;;;0.43;0.43;;;;;;;;;;5063490;28;20206;-89
2023/10/04 10:10:12;;;;;;;0.60;0.60;;;;;;;;;;5065131;28;20202;-86
2023/10/04 10:12:39;;;;;;;0.50;0.50;;;;;;;;;;5063817;28;20196;-87
2023/10/04 10:15:06;;;;;;;0.60;0.60;;;;;;;;;;5061705;28;20187;-87
2023/10/04 10:17:34;;;;;;;0.50;0.50;;;;;;;;;;5058686;28;20182;-88
2023/10/04 10:20:00;;;;;;;0.63;0.63;;;;;;;;;;5059004;28;20206;-87
2023/10/04 10:22:26;;;;;;;0.60;0.60;;;;;;;;;;5060370;28;20250;-85
2023/10/04 10:24:59;;;;;;;0.60;0.60;;;;;;;;;;5061683;28;20644;-85
2023/10/04 10:27:28;;;;;;;0.60;0.60;;;;;;;;;;5063011;28;20278;-87
2023/10/04 10:29:59;;;;;;;0.60;0.60;;;;;;;;;;5069986;28;20243;-85
2023/10/04 10:32:25;;;;;;;0.60;0.60;;;;;;;;;;5065765;28;20596;-88
2023/10/04 10:34:53;;;;;;;0.60;0.60;;;;;;;;;;5060187;28;20191;-86
2023/10/04 10:37:22;;;;;;;0.60;0.60;;;;;;;;;;5060757;28;20179;-87
2023/10/04 10:39:52;;;;;;;0.60;0.60;;;;;;;;;;5059180;28;20198;-88
2023/10/04 10:42:18;;;;;;;0.65;0.65;;;;;;;;;;5055418;28;20207;-84
2023/10/04 10:44:44;;;;;;;0.52;0.52;;;;;;;;;;5054496;28;20186;-86
2023/10/04 10:47:23;;;;;;;0.60;0.60;;;;;;;;;;5056406;28;20186;-89
2023/10/04 10:49:52;;;;;;;0.60;0.60;;;;;;;;;;5056536;28;20182;-84
2023/10/04 10:52:21;;;;;;;0.63;0.63;;;;;;;;;;5056524;28;20241;-87
2023/10/04 10:54:48;;;;;;;0.50;0.50;;;;;;;;;;5067249;28;20172;-87
2023/10/04 10:57:14;;;;;;;0.50;0.50;;;;;;;;;;5073553;28;20237;-85
2023/10/04 10:59:40;;;;;;;0.60;0.60;;;;;;;;;;5057468;28;20633;-85
2023/10/04 11:02:06;;;;;;;0.40;0.40;;;;;;;;;;5055031;28;20199;-86
2023/10/04 11:04:32;;;;;;;0.50;0.50;;;;;;;;;;5058043;28;20280;-85
2023/10/04 11:06:58;;;;;;;0.45;0.45;;;;;;;;;;5056796;28;20206;-86
2023/10/04 11:09:26;;;;;;;0.47;0.47;;;;;;;;;;5065025;28;20179;-88
2023/10/04 11:11:52;;;;;;;0.40;0.40;;;;;;;;;;5070339;28;20198;-88
2023/10/04 11:14:22;;;;;;;0.50;0.50;;;;;;;;;;5056659;28;20209;-89
2023/10/04 11:16:48;;;;;;;0.40;0.40;;;;;;;;;;5056576;28;20163;-88
2023/10/04 11:19:15;;;;;;;0.30;0.30;;;;;;;;;;5056307;28;20180;-88
2023/10/04 11:21:41;;;;;;;0.20;0.20;;;;;;;;;;5055555;28;20628;-88
2023/10/04 11:24:09;;;;;;;0.30;0.30;;;;;;;;;;5054600;28;20282;-87
2023/10/04 11:26:40;;;;;;;0.30;0.30;;;;;;;;;;5055778;28;20563;-88
2023/10/04 11:29:06;;;;;;;0.50;0.50;;;;;;;;;;5057044;28;20178;-86
2023/10/04 11:31:33;;;;;;;0.30;0.30;;;;;;;;;;5054550;28;20210;-88
2023/10/04 11:34:00;;;;;;;0.40;0.40;;;;;;;;;;5056631;28;20175;-87
2023/10/04 11:36:27;;;;;;;0.40;0.40;;;;;;;;;;5057201;28;20191;-86
2023/10/04 11:38:54;;;;;;;0.20;0.20;;;;;;;;;;5056200;28;20175;-88
2023/10/04 11:41:20;;;;;;;0.50;0.50;;;;;;;;;;5056306;28;20270;-86
2023/10/04 11:43:46;;;;;;;0.60;0.60;;;;;;;;;;5055337;28;20178;-89
2023/10/04 11:46:12;;;;;;;0.60;0.60;;;;;;;;;;5057738;28;20191;-86
2023/10/04 11:48:38;;;;;;;0.50;0.50;;;;;;;;;;5067865;28;20213;-85
2023/10/04 11:51:04;;;;;;;0.50;0.50;;;;;;;;;;5073291;28;20194;-84
2023/10/04 11:53:35;;;;;;;0.50;0.50;;;;;;;;;;5075325;28;20206;-86
2023/10/04 11:56:01;;;;;;;0.47;0.47;;;;;;;;;;5077641;28;20231;-83
2023/10/04 11:58:27;;;;;;;0.50;0.50;;;;;;;;;;5077509;28;20182;-87
2023/10/04 12:01:06;;;;;;;0.40;0.40;;;;;;;;;;5070016;28;20286;-87
2023/10/04 12:03:32;;;;;;;0.40;0.40;;;;;;;;;;5056735;28;20179;-87
2023/10/04 12:05:59;;;;;;;0.60;0.60;;;;;;;;;;5055092;28;20191;-86
2023/10/04 12:08:25;;;;;;;0.37;0.37;;;;;;;;;;5054203;28;20171;-84
2023/10/04 12:10:51;;;;;;;0.50;0.50;;;;;;;;;;5055092;28;20174;-87
2023/10/04 12:13:18;;;;;;;0.30;0.30;;;;;;;;;;5064537;28;20222;-83
2023/10/04 12:15:45;;;;;;;0.50;0.50;;;;;;;;;;5075685;28;20179;-85
2023/10/04 12:18:15;;;;;;;0.40;0.40;;;;;;;;;;5073663;28;20167;-87
2023/10/04 12:20:42;;;;;;;0.50;0.50;;;;;;;;;;5053500;28;20222;-87
2023/10/04 12:23:10;;;;;;;0.40;0.40;;;;;;;;;;5052932;28;20611;-83
2023/10/04 12:25:37;;;;;;;0.50;0.50;;;;;;;;;;5051871;28;20183;-85
2023/10/04 12:28:07;;;;;;;0.40;0.40;;;;;;;;;;5053991;28;20178;-85
2023/10/04 12:30:33;;;;;;;0.50;0.50;;;;;;;;;;5053243;28;20179;-87
2023/10/04 12:33:00;;;;;;;0.40;0.40;;;;;;;;;;5056537;28;20203;-88
2023/10/04 12:35:27;;;;;;;0.53;0.53;;;;;;;;;;5058463;28;20198;-86
2023/10/04 12:37:54;;;;;;;0.50;0.50;;;;;;;;;;5058181;28;20179;-86
2023/10/04 12:40:23;;;;;;;0.50;0.50;;;;;;;;;;5058485;28;20731;-86
2023/10/04 12:42:51;;;;;;;0.50;0.50;;;;;;;;;;5054816;28;20233;-86
2023/10/04 12:45:18;;;;;;;0.50;0.50;;;;;;;;;;5053806;28;20195;-86
2023/10/04 12:47:45;;;;;;;0.30;0.30;;;;;;;;;;5057530;28;20245;-87
2023/10/04 12:50:14;;;;;;;0.40;0.40;;;;;;;;;;5055684;28;20167;-84
2023/10/04 12:52:41;;;;;;;0.43;0.43;;;;;;;;;;5056354;28;20191;-85
2023/10/04 12:55:08;;;;;;;0.30;0.30;;;;;;;;;;5055666;28;20325;-86
2023/10/04 12:57:34;;;;;;;0.20;0.20;;;;;;;;;;5054027;28;20175;-87
2023/10/04 13:00:01;;;;;;;0.37;0.37;;;;;;;;;;5054772;28;20289;-87
2023/10/04 13:02:27;;;;;;;0.40;0.40;;;;;;;;;;5053255;28;20188;-86
2023/10/04 13:04:54;;;;;;;0.33;0.33;;;;;;;;;;5063915;28;20201;-87
2023/10/04 13:07:21;;;;;;;0.40;0.40;;;;;;;;;;5069834;28;20195;-85
2023/10/04 13:09:48;;;;;;;0.30;0.30;;;;;;;;;;5054753;28;20663;-86
2023/10/04 13:12:14;;;;;;;0.40;0.40;;;;;;;;;;5052826;28;20207;-86
2023/10/04 13:14:39;;;;;;;0.30;0.30;;;;;;;;;;5056594;28;20189;-87
2023/10/04 13:17:06;;;;;;;0.30;0.30;;;;;;;;;;5051862;28;20175;-85
2023/10/04 13:19:35;;;;;;;0.40;0.40;;;;;;;;;;5054578;28;20723;-88
2023/10/04 13:22:01;;;;;;;0.40;0.40;;;;;;;;;;5054665;28;20195;-86
2023/10/04 13:24:31;;;;;;;0.30;0.30;;;;;;;;;;5054811;28;20177;-86
2023/10/04 13:26:57;;;;;;;0.23;0.23;;;;;;;;;;5056154;28;20686;-86
2023/10/04 13:29:23;;;;;;;0.30;0.30;;;;;;;;;;5056443;28;20187;-87
2023/10/04 13:31:49;;;;;;;0.37;0.37;;;;;;;;;;5075816;28;20252;-86
2023/10/04 13:34:15;;;;;;;0.40;0.40;;;;;;;;;;5080230;28;20172;-84
2023/10/04 13:36:41;;;;;;;0.30;0.30;;;;;;;;;;5079321;28;20201;-85
2023/10/04 13:39:09;;;;;;;0.30;0.30;;;;;;;;;;5079411;28;20183;-83
2023/10/04 13:41:36;;;;;;;0.23;0.23;;;;;;;;;;5079448;28;20187;-82
2023/10/04 13:44:02;;;;;;;0.27;0.27;;;;;;;;;;5072777;28;20231;-88
2023/10/04 13:46:28;;;;;;;0.30;0.30;;;;;;;;;;5060247;28;20213;-86
2023/10/04 13:48:55;;;;;;;0.30;0.30;;;;;;;;;;5059737;28;20179;-85
2023/10/04 13:51:25;;;;;;;0.30;0.30;;;;;;;;;;5059868;28;20191;-86
2023/10/04 13:53:51;;;;;;;0.30;0.30;;;;;;;;;;5059279;28;20183;-84
2023/10/04 13:56:18;;;;;;;0.37;0.37;;;;;;;;;;5056710;28;20175;-86
2023/10/04 13:58:44;;;;;;;0.40;0.40;;;;;;;;;;5056500;28;20191;-86
2023/10/04 14:01:11;;;;;;;0.27;0.27;;;;;;;;;;5057296;28;20285;-85
2023/10/04 14:03:37;;;;;;;0.30;0.30;;;;;;;;;;5056793;28;20241;-85
2023/10/04 14:06:10;;;;;;;0.30;0.30;;;;;;;;;;5058434;28;20266;-84
2023/10/04 14:08:37;;;;;;;0.23;0.23;;;;;;;;;;5057298;28;20179;-84
2023/10/04 14:11:04;;;;;;;0.20;0.20;;;;;;;;;;5056781;28;20191;-85
2023/10/04 14:13:31;;;;;;;0.30;0.30;;;;;;;;;;5058791;28;20183;-84
2023/10/04 14:15:57;;;;;;;0.40;0.40;;;;;;;;;;5057616;28;20167;-86
2023/10/04 14:18:24;;;;;;;0.30;0.30;;;;;;;;;;5060652;28;20218;-83
2023/10/04 14:20:54;;;;;;;0.30;0.30;;;;;;;;;;5058478;28;20218;-86
2023/10/04 14:23:21;;;;;;;0.37;0.37;;;;;;;;;;5070074;28;20182;-86
2023/10/04 14:25:49;;;;;;;0.30;0.30;;;;;;;;;;5074741;28;20186;-86
2023/10/04 14:28:15;;;;;;;0.33;0.33;;;;;;;;;;5072663;28;20166;-85
2023/10/04 14:30:42;;;;;;;0.37;0.37;;;;;;;;;;5060673;28;20182;-85
2023/10/04 14:33:08;;;;;;;0.20;0.20;;;;;;;;;;5077772;28;20671;-88
2023/10/04 14:35:34;;;;;;;0.40;0.40;;;;;;;;;;5076874;28;20174;-88
2023/10/04 14:38:00;;;;;;;0.30;0.30;;;;;;;;;;5074692;28;20186;-88
2023/10/04 14:40:26;;;;;;;0.30;0.30;;;;;;;;;;5076390;28;20586;-85
2023/10/04 14:42:56;;;;;;;0.30;0.30;;;;;;;;;;5093607;28;20261;-88
2023/10/04 14:45:23;;;;;;;0.30;0.30;;;;;;;;;;5095786;28;20154;-84